Time;durP1;ratioP1;P1;durP2;ratioP2;P2;SDS_P1;SDS_P2;PMS_P1;PMS_P2;Temp;Humidity;BMP_temperature;BMP_pressure;BME280_temperature;BME280_humidity;BME280_pressure;Samples;Min_cycle;Max_cycle;Signal;HPM_P1;HPM_P2
2021/11/24 15:22:58;;;;;;;;;;;-0.20;99.90;;;;;;5106706;27;19931;-88
2021/11/24 15:25:24;;;;;;;;;;;-0.30;99.90;;;;;;5092634;28;19920;-89
2021/11/24 15:27:49;;;;;;;;;;;-0.30;99.90;;;;;;5088087;28;20322;-89
2021/11/24 16:10:04;;;;;;;;;;;0.10;99.90;;;;;;5111561;27;20388;-89
2021/11/24 16:12:30;;;;;;;;;;;0.10;99.90;;;;;;5109406;28;19912;-89
2021/11/24 16:14:56;;;;;;;;;;;0.10;99.90;;;;;;5112820;28;20379;-89
2021/11/24 16:17:22;;;;;;;;;;;0.20;99.90;;;;;;5111538;28;19908;-90
2021/11/24 16:19:47;;;;;;;;;;;0.30;99.90;;;;;;5112061;28;19926;-90
2021/11/24 16:54:44;;;;;;;;;;;0.60;99.90;;;;;;5111960;27;19912;-91
2021/11/24 16:57:10;;;;;;;;;;;0.60;99.90;;;;;;5110688;28;20443;-91
2021/11/24 16:59:36;;;;;;;;;;;0.60;99.90;;;;;;5110186;28;19969;-92
2021/11/24 17:02:01;;;;;;;;;;;0.70;99.90;;;;;;5110549;28;20318;-92
2021/11/24 17:04:27;;;;;;;;;;;0.80;99.90;;;;;;5108341;28;19926;-93
2021/11/24 17:06:52;;;;;;;;;;;0.90;99.90;;;;;;5107681;28;19916;-93
2021/11/24 17:09:18;;;;;;;;;;;1.10;99.90;;;;;;5107786;28;20355;-92
2021/11/24 17:11:44;;;;;;;;;;;1.20;99.90;;;;;;5115124;28;19927;-92
2021/11/24 17:14:09;;;;;;;;;;;1.30;99.90;;;;;;5121552;28;19963;-91
2021/11/24 17:16:36;;;;;;;;;;;1.40;99.90;;;;;;5109168;28;19916;-94
2021/11/24 17:19:01;;;;;;;;;;;1.50;99.90;;;;;;5110348;28;19919;-93
2021/11/24 17:21:27;;;;;;;;;;;1.50;99.90;;;;;;5109843;28;20003;-94
2021/11/24 17:23:52;;;;;;;;;;;1.60;99.90;;;;;;5109760;28;20006;-92
2021/11/24 17:26:18;;;;;;;;;;;1.70;99.90;;;;;;5109765;28;19919;-94
2021/11/24 17:28:44;;;;;;;;;;;1.80;99.90;;;;;;5103200;28;20327;-92
2021/11/24 17:31:10;;;;;;;;;;;1.80;99.90;;;;;;5108421;28;19912;-93
2021/11/24 17:33:35;;;;;;;;;;;1.80;99.90;;;;;;5111403;28;19912;-93
2021/11/24 17:36:01;;;;;;;;;;;1.90;99.90;;;;;;5104818;28;20310;-92
2021/11/24 17:38:28;;;;;;;;;;;1.90;99.90;;;;;;5111173;28;19915;-91
2021/11/24 17:40:54;;;;;;;;;;;2.00;99.90;;;;;;5108728;28;19916;-92
2021/11/24 17:43:20;;;;;;;;;;;2.10;99.90;;;;;;5109408;28;19916;-93
2021/11/24 17:45:47;;;;;;;;;;;2.10;99.90;;;;;;5110038;28;19912;-93
2021/11/24 17:48:12;;;;;;;;;;;2.20;99.90;;;;;;5109409;28;19957;-89
2021/11/24 17:50:38;;;;;;;;;;;2.20;99.90;;;;;;5109609;28;20011;-89
2021/11/24 17:53:04;;;;;;;;;;;2.20;99.90;;;;;;5107176;28;19931;-89
2021/11/24 19:26:59;;;;;;;;;;;1.20;99.90;;;;;;5113804;27;19927;-92
2021/11/24 19:29:24;;;;;;;;;;;1.20;99.90;;;;;;5108339;28;20000;-91
2021/11/24 19:31:50;;;;;;;;;;;1.30;99.90;;;;;;5101307;28;19912;-92
2021/11/24 19:34:16;;;;;;;;;;;1.40;99.90;;;;;;5104817;28;19958;-92
2021/11/24 19:36:41;;;;;;;;;;;1.50;99.90;;;;;;5109719;28;19951;-88
2021/11/24 19:39:07;;;;;;;;;;;1.50;99.90;;;;;;5113400;28;19934;-92
2021/11/24 19:41:35;;;;;;;;;;;1.60;99.90;;;;;;5120773;28;20317;-92
2021/11/24 19:44:00;;;;;;;;;;;1.70;99.90;;;;;;5116168;28;19916;-92
2021/11/24 19:46:26;;;;;;;;;;;1.80;99.90;;;;;;5109567;28;19916;-92
2021/11/24 19:48:52;;;;;;;;;;;1.90;99.90;;;;;;5093968;28;20007;-91
2021/11/24 19:51:17;;;;;;;;;;;2.00;99.90;;;;;;5111201;28;19957;-91
2021/11/24 20:08:06;;;;;;;;;;;1.90;99.90;;;;;;5112943;27;19912;-87
